sensor_id;sensor_type;location;lat;lon;timestamp;pressure;altitude;pressure_sealevel;temperature;humidity
26320;BME280;14024;52.226;5.200;2023-08-21T00:01:21;102306.50;;;17.84;74.84
26320;BME280;14024;52.226;5.200;2023-08-21T00:03:46;102303.31;;;17.78;75.13
26320;BME280;14024;52.226;5.200;2023-08-21T00:06:12;102300.78;;;17.75;75.04
26320;BME280;14024;52.226;5.200;2023-08-21T00:08:37;102306.25;;;17.73;74.77
26320;BME280;14024;52.226;5.200;2023-08-21T00:11:02;102312.22;;;17.78;74.82
26320;BME280;14024;52.226;5.200;2023-08-21T00:13:28;102309.44;;;17.80;74.64
26320;BME280;14024;52.226;5.200;2023-08-21T00:15:53;102316.09;;;17.89;74.34
26320;BME280;14024;52.226;5.200;2023-08-21T00:18:20;102314.78;;;17.96;74.66
26320;BME280;14024;52.226;5.200;2023-08-21T00:20:46;102309.06;;;18.02;74.48
26320;BME280;14024;52.226;5.200;2023-08-21T00:23:11;102305.75;;;17.97;74.87
26320;BME280;14024;52.226;5.200;2023-08-21T00:25:37;102310.97;;;18.00;74.60
26320;BME280;14024;52.226;5.200;2023-08-21T00:28:03;102304.41;;;18.05;74.73
26320;BME280;14024;52.226;5.200;2023-08-21T00:30:29;102297.75;;;18.26;74.34
26320;BME280;14024;52.226;5.200;2023-08-21T00:32:55;102298.50;;;18.28;73.84
26320;BME280;14024;52.226;5.200;2023-08-21T00:35:20;102303.88;;;18.28;73.39
26320;BME280;14024;52.226;5.200;2023-08-21T00:37:46;102300.16;;;18.31;73.35
26320;BME280;14024;52.226;5.200;2023-08-21T00:40:13;102290.09;;;18.35;73.37
26320;BME280;14024;52.226;5.200;2023-08-21T00:42:38;102295.25;;;18.38;73.16
26320;BME280;14024;52.226;5.200;2023-08-21T00:45:04;102301.69;;;18.35;73.28
26320;BME280;14024;52.226;5.200;2023-08-21T00:47:30;102300.81;;;18.35;73.80
26320;BME280;14024;52.226;5.200;2023-08-21T00:49:56;102299.28;;;18.31;73.73
26320;BME280;14024;52.226;5.200;2023-08-21T00:52:21;102299.09;;;18.34;73.94
26320;BME280;14024;52.226;5.200;2023-08-21T00:54:47;102295.38;;;18.36;73.67
26320;BME280;14024;52.226;5.200;2023-08-21T00:57:13;102301.19;;;18.28;74.32
26320;BME280;14024;52.226;5.200;2023-08-21T00:59:39;102293.50;;;18.22;74.33
26320;BME280;14024;52.226;5.200;2023-08-21T01:02:04;102287.75;;;18.14;74.71
26320;BME280;14024;52.226;5.200;2023-08-21T01:04:30;102289.06;;;18.07;74.95
26320;BME280;14024;52.226;5.200;2023-08-21T01:06:57;102289.06;;;18.07;74.57
26320;BME280;14024;52.226;5.200;2023-08-21T01:12:23;102292.13;;;17.86;74.36
26320;BME280;14024;52.226;5.200;2023-08-21T01:15:01;102299.75;;;17.77;74.39
26320;BME280;14024;52.226;5.200;2023-08-21T01:17:33;102302.53;;;17.76;74.58
26320;BME280;14024;52.226;5.200;2023-08-21T01:19:59;102299.84;;;17.76;74.53
26320;BME280;14024;52.226;5.200;2023-08-21T01:22:41;102302.19;;;17.82;74.91
26320;BME280;14024;52.226;5.200;2023-08-21T01:25:11;102298.56;;;17.83;74.56
26320;BME280;14024;52.226;5.200;2023-08-21T01:27:40;102301.38;;;17.80;74.53
26320;BME280;14024;52.226;5.200;2023-08-21T01:30:07;102296.81;;;17.82;74.73
26320;BME280;14024;52.226;5.200;2023-08-21T01:32:42;102304.41;;;17.90;74.52
26320;BME280;14024;52.226;5.200;2023-08-21T01:35:09;102310.50;;;17.77;74.15
26320;BME280;14024;52.226;5.200;2023-08-21T01:37:36;102308.41;;;17.67;74.26
26320;BME280;14024;52.226;5.200;2023-08-21T01:40:02;102313.97;;;17.64;74.73
26320;BME280;14024;52.226;5.200;2023-08-21T01:42:27;102312.47;;;17.58;74.64
26320;BME280;14024;52.226;5.200;2023-08-21T01:44:52;102304.75;;;17.52;74.74
26320;BME280;14024;52.226;5.200;2023-08-21T01:47:18;102306.66;;;17.50;74.89
26320;BME280;14024;52.226;5.200;2023-08-21T01:49:43;102299.75;;;17.46;74.77
26320;BME280;14024;52.226;5.200;2023-08-21T01:52:09;102307.53;;;17.51;74.67
26320;BME280;14024;52.226;5.200;2023-08-21T01:54:35;102306.13;;;17.44;74.90
26320;BME280;14024;52.226;5.200;2023-08-21T01:57:01;102300.97;;;17.40;75.43
26320;BME280;14024;52.226;5.200;2023-08-21T01:59:26;102304.56;;;17.39;75.41
26320;BME280;14024;52.226;5.200;2023-08-21T02:01:52;102306.31;;;17.40;74.79
26320;BME280;14024;52.226;5.200;2023-08-21T02:04:17;102313.66;;;17.37;75.38
26320;BME280;14024;52.226;5.200;2023-08-21T02:06:42;102303.34;;;17.29;75.63
26320;BME280;14024;52.226;5.200;2023-08-21T02:09:10;102307.09;;;17.27;76.05
26320;BME280;14024;52.226;5.200;2023-08-21T02:11:35;102309.59;;;17.30;75.96
26320;BME280;14024;52.226;5.200;2023-08-21T02:14:01;102309.44;;;17.33;75.78
26320;BME280;14024;52.226;5.200;2023-08-21T02:16:26;102306.75;;;17.33;75.76
26320;BME280;14024;52.226;5.200;2023-08-21T02:18:51;102307.00;;;17.28;75.77
26320;BME280;14024;52.226;5.200;2023-08-21T02:21:17;102304.97;;;17.16;76.63
26320;BME280;14024;52.226;5.200;2023-08-21T02:23:42;102304.38;;;17.11;76.40
26320;BME280;14024;52.226;5.200;2023-08-21T02:26:08;102304.28;;;17.13;75.96
26320;BME280;14024;52.226;5.200;2023-08-21T02:28:33;102314.25;;;17.11;76.28
26320;BME280;14024;52.226;5.200;2023-08-21T02:30:58;102308.13;;;17.24;76.20
26320;BME280;14024;52.226;5.200;2023-08-21T02:33:24;102312.19;;;17.31;75.23
26320;BME280;14024;52.226;5.200;2023-08-21T02:35:49;102308.72;;;17.29;75.24
26320;BME280;14024;52.226;5.200;2023-08-21T02:38:14;102312.38;;;17.28;75.56
26320;BME280;14024;52.226;5.200;2023-08-21T02:40:40;102313.31;;;17.27;75.44
26320;BME280;14024;52.226;5.200;2023-08-21T02:43:05;102309.94;;;17.24;75.44
26320;BME280;14024;52.226;5.200;2023-08-21T02:45:30;102303.16;;;17.17;75.82
26320;BME280;14024;52.226;5.200;2023-08-21T02:47:56;102309.72;;;17.11;76.23
26320;BME280;14024;52.226;5.200;2023-08-21T02:50:21;102300.13;;;17.07;76.37
26320;BME280;14024;52.226;5.200;2023-08-21T02:52:47;102315.44;;;17.05;75.83
26320;BME280;14024;52.226;5.200;2023-08-21T02:55:12;102311.72;;;17.08;75.78
26320;BME280;14024;52.226;5.200;2023-08-21T02:57:40;102308.28;;;17.06;75.84
26320;BME280;14024;52.226;5.200;2023-08-21T03:00:06;102310.09;;;17.05;75.58
26320;BME280;14024;52.226;5.200;2023-08-21T03:02:33;102305.59;;;17.06;75.60
26320;BME280;14024;52.226;5.200;2023-08-21T03:04:59;102307.72;;;16.99;76.16
26320;BME280;14024;52.226;5.200;2023-08-21T03:07:25;102302.53;;;16.96;76.33
26320;BME280;14024;52.226;5.200;2023-08-21T03:09:50;102305.53;;;16.90;76.48
26320;BME280;14024;52.226;5.200;2023-08-21T03:12:16;102304.84;;;16.86;76.34
26320;BME280;14024;52.226;5.200;2023-08-21T03:14:42;102302.66;;;16.77;76.37
26320;BME280;14024;52.226;5.200;2023-08-21T03:17:07;102302.41;;;16.82;77.22
26320;BME280;14024;52.226;5.200;2023-08-21T03:19:33;102311.00;;;16.88;76.73
26320;BME280;14024;52.226;5.200;2023-08-21T03:21:58;102308.41;;;16.87;76.66
26320;BME280;14024;52.226;5.200;2023-08-21T03:24:24;102302.25;;;16.85;76.37
26320;BME280;14024;52.226;5.200;2023-08-21T03:26:49;102300.19;;;16.90;75.88
26320;BME280;14024;52.226;5.200;2023-08-21T03:29:15;102307.06;;;16.78;76.65
26320;BME280;14024;52.226;5.200;2023-08-21T03:31:41;102305.41;;;16.76;76.23
26320;BME280;14024;52.226;5.200;2023-08-21T03:34:06;102295.69;;;16.75;75.69
26320;BME280;14024;52.226;5.200;2023-08-21T03:36:31;102298.59;;;16.70;76.06
26320;BME280;14024;52.226;5.200;2023-08-21T03:39:00;102299.91;;;16.62;76.39
26320;BME280;14024;52.226;5.200;2023-08-21T03:41:27;102292.69;;;16.64;76.72
26320;BME280;14024;52.226;5.200;2023-08-21T03:43:52;102292.84;;;16.61;76.49
26320;BME280;14024;52.226;5.200;2023-08-21T03:46:18;102297.56;;;16.56;76.66
26320;BME280;14024;52.226;5.200;2023-08-21T03:48:43;102290.53;;;16.53;77.11
26320;BME280;14024;52.226;5.200;2023-08-21T03:51:09;102294.00;;;16.55;77.00
26320;BME280;14024;52.226;5.200;2023-08-21T03:53:34;102300.09;;;16.59;76.76
26320;BME280;14024;52.226;5.200;2023-08-21T03:55:59;102294.06;;;16.53;76.76
26320;BME280;14024;52.226;5.200;2023-08-21T03:58:25;102300.38;;;16.52;77.06
26320;BME280;14024;52.226;5.200;2023-08-21T04:00:52;102293.38;;;16.50;76.67
26320;BME280;14024;52.226;5.200;2023-08-21T04:03:17;102302.44;;;16.47;76.94
26320;BME280;14024;52.226;5.200;2023-08-21T04:05:43;102294.56;;;16.44;76.71
26320;BME280;14024;52.226;5.200;2023-08-21T04:08:08;102300.16;;;16.40;76.82
26320;BME280;14024;52.226;5.200;2023-08-21T04:10:33;102309.84;;;16.42;76.52
26320;BME280;14024;52.226;5.200;2023-08-21T04:12:59;102309.69;;;16.45;76.32
26320;BME280;14024;52.226;5.200;2023-08-21T04:15:26;102308.09;;;16.41;76.44
26320;BME280;14024;52.226;5.200;2023-08-21T04:17:51;102310.22;;;16.35;77.04
26320;BME280;14024;52.226;5.200;2023-08-21T04:20:21;102317.25;;;16.37;77.24
26320;BME280;14024;52.226;5.200;2023-08-21T04:22:47;102301.19;;;16.37;76.85
26320;BME280;14024;52.226;5.200;2023-08-21T04:25:12;102303.56;;;16.43;77.07
26320;BME280;14024;52.226;5.200;2023-08-21T04:27:38;102310.63;;;16.44;77.27
26320;BME280;14024;52.226;5.200;2023-08-21T04:30:04;102312.41;;;16.44;77.18
26320;BME280;14024;52.226;5.200;2023-08-21T04:32:30;102304.63;;;16.39;77.13
26320;BME280;14024;52.226;5.200;2023-08-21T04:34:55;102311.88;;;16.37;77.34
26320;BME280;14024;52.226;5.200;2023-08-21T04:37:21;102313.47;;;16.41;76.96
26320;BME280;14024;52.226;5.200;2023-08-21T04:39:50;102320.22;;;16.48;76.94
26320;BME280;14024;52.226;5.200;2023-08-21T04:42:16;102321.25;;;16.46;77.04
26320;BME280;14024;52.226;5.200;2023-08-21T04:44:42;102316.78;;;16.46;76.69
26320;BME280;14024;52.226;5.200;2023-08-21T04:47:25;102327.72;;;16.42;77.11
26320;BME280;14024;52.226;5.200;2023-08-21T04:49:54;102324.34;;;16.38;76.57
26320;BME280;14024;52.226;5.200;2023-08-21T04:52:20;102320.69;;;16.39;76.39
26320;BME280;14024;52.226;5.200;2023-08-21T04:54:47;102327.25;;;16.34;76.15
26320;BME280;14024;52.226;5.200;2023-08-21T04:57:12;102311.72;;;16.23;76.65
26320;BME280;14024;52.226;5.200;2023-08-21T04:59:38;102324.16;;;16.24;76.79
26320;BME280;14024;52.226;5.200;2023-08-21T05:02:04;102323.06;;;16.28;76.63
26320;BME280;14024;52.226;5.200;2023-08-21T05:04:30;102324.88;;;16.28;76.75
26320;BME280;14024;52.226;5.200;2023-08-21T05:06:55;102332.44;;;16.37;76.57
26320;BME280;14024;52.226;5.200;2023-08-21T05:09:21;102320.63;;;16.41;76.11
26320;BME280;14024;52.226;5.200;2023-08-21T05:11:46;102322.66;;;16.36;76.44
26320;BME280;14024;52.226;5.200;2023-08-21T05:14:11;102326.50;;;16.30;76.56
26320;BME280;14024;52.226;5.200;2023-08-21T05:16:37;102330.16;;;16.29;77.07
26320;BME280;14024;52.226;5.200;2023-08-21T05:19:02;102320.00;;;16.36;77.23
26320;BME280;14024;52.226;5.200;2023-08-21T05:21:29;102327.31;;;16.49;76.93
26320;BME280;14024;52.226;5.200;2023-08-21T05:23:54;102334.41;;;16.68;76.05
26320;BME280;14024;52.226;5.200;2023-08-21T05:26:20;102336.59;;;16.77;75.67
26320;BME280;14024;52.226;5.200;2023-08-21T05:28:45;102340.56;;;16.70;75.75
26320;BME280;14024;52.226;5.200;2023-08-21T05:31:11;102339.59;;;16.71;76.22
26320;BME280;14024;52.226;5.200;2023-08-21T05:33:36;102340.31;;;16.74;75.81
26320;BME280;14024;52.226;5.200;2023-08-21T05:36:02;102333.16;;;16.75;75.69
26320;BME280;14024;52.226;5.200;2023-08-21T05:38:27;102332.81;;;16.81;75.29
26320;BME280;14024;52.226;5.200;2023-08-21T05:40:52;102333.47;;;16.69;75.90
26320;BME280;14024;52.226;5.200;2023-08-21T05:43:18;102342.28;;;16.71;76.54
26320;BME280;14024;52.226;5.200;2023-08-21T05:45:43;102344.56;;;16.78;76.08
26320;BME280;14024;52.226;5.200;2023-08-21T05:48:09;102344.22;;;16.84;75.90
26320;BME280;14024;52.226;5.200;2023-08-21T05:50:34;102339.72;;;16.85;75.95
26320;BME280;14024;52.226;5.200;2023-08-21T05:53:03;102339.09;;;16.97;76.28
26320;BME280;14024;52.226;5.200;2023-08-21T05:55:29;102334.00;;;17.08;75.98
26320;BME280;14024;52.226;5.200;2023-08-21T05:57:54;102345.72;;;17.23;75.18
26320;BME280;14024;52.226;5.200;2023-08-21T06:00:21;102344.16;;;17.34;75.41
26320;BME280;14024;52.226;5.200;2023-08-21T06:02:46;102344.53;;;17.44;75.33
26320;BME280;14024;52.226;5.200;2023-08-21T06:05:12;102341.72;;;17.63;74.64
26320;BME280;14024;52.226;5.200;2023-08-21T06:07:37;102341.13;;;17.73;74.89
26320;BME280;14024;52.226;5.200;2023-08-21T06:10:03;102341.81;;;17.77;75.14
26320;BME280;14024;52.226;5.200;2023-08-21T06:12:30;102348.53;;;17.84;74.80
26320;BME280;14024;52.226;5.200;2023-08-21T06:14:55;102351.97;;;18.02;74.95
26320;BME280;14024;52.226;5.200;2023-08-21T06:17:20;102348.16;;;18.21;74.34
26320;BME280;14024;52.226;5.200;2023-08-21T06:19:46;102349.66;;;18.41;73.82
26320;BME280;14024;52.226;5.200;2023-08-21T06:22:11;102348.75;;;18.56;73.58
26320;BME280;14024;52.226;5.200;2023-08-21T06:24:36;102346.97;;;18.71;73.29
26320;BME280;14024;52.226;5.200;2023-08-21T06:27:02;102349.00;;;18.82;73.09
26320;BME280;14024;52.226;5.200;2023-08-21T06:29:27;102356.88;;;18.85;73.40
26320;BME280;14024;52.226;5.200;2023-08-21T06:31:53;102356.22;;;18.95;73.22
26320;BME280;14024;52.226;5.200;2023-08-21T06:34:18;102355.44;;;19.07;72.65
26320;BME280;14024;52.226;5.200;2023-08-21T06:36:43;102358.91;;;19.24;72.50
26320;BME280;14024;52.226;5.200;2023-08-21T06:39:09;102359.28;;;19.46;71.91
26320;BME280;14024;52.226;5.200;2023-08-21T06:41:34;102356.78;;;19.57;71.87
26320;BME280;14024;52.226;5.200;2023-08-21T06:44:00;102359.28;;;19.60;72.21
26320;BME280;14024;52.226;5.200;2023-08-21T06:46:25;102353.13;;;19.72;72.03
26320;BME280;14024;52.226;5.200;2023-08-21T06:48:51;102356.53;;;19.88;71.40
26320;BME280;14024;52.226;5.200;2023-08-21T06:51:17;102356.06;;;20.09;71.29
26320;BME280;14024;52.226;5.200;2023-08-21T06:53:42;102357.38;;;20.16;71.14
26320;BME280;14024;52.226;5.200;2023-08-21T06:56:07;102355.13;;;20.22;70.70
26320;BME280;14024;52.226;5.200;2023-08-21T06:58:33;102359.25;;;20.28;70.77
26320;BME280;14024;52.226;5.200;2023-08-21T07:01:00;102358.09;;;20.32;70.47
26320;BME280;14024;52.226;5.200;2023-08-21T07:03:26;102356.94;;;20.36;70.58
26320;BME280;14024;52.226;5.200;2023-08-21T07:05:55;102360.72;;;20.46;70.12
26320;BME280;14024;52.226;5.200;2023-08-21T07:08:22;102354.31;;;20.61;69.04
26320;BME280;14024;52.226;5.200;2023-08-21T07:10:48;102360.78;;;20.71;68.54
26320;BME280;14024;52.226;5.200;2023-08-21T07:13:13;102354.22;;;20.75;68.04
26320;BME280;14024;52.226;5.200;2023-08-21T07:15:39;102361.84;;;20.81;67.52
26320;BME280;14024;52.226;5.200;2023-08-21T07:18:04;102364.75;;;20.91;67.13
26320;BME280;14024;52.226;5.200;2023-08-21T07:20:29;102365.22;;;20.98;67.03
26320;BME280;14024;52.226;5.200;2023-08-21T07:22:55;102351.09;;;21.07;65.72
26320;BME280;14024;52.226;5.200;2023-08-21T07:25:20;102357.22;;;21.09;63.83
26320;BME280;14024;52.226;5.200;2023-08-21T07:27:45;102356.59;;;21.18;63.11
26320;BME280;14024;52.226;5.200;2023-08-21T07:30:11;102364.56;;;21.32;63.34
26320;BME280;14024;52.226;5.200;2023-08-21T07:32:36;102357.75;;;21.26;62.15
26320;BME280;14024;52.226;5.200;2023-08-21T07:35:02;102364.22;;;21.36;63.63
26320;BME280;14024;52.226;5.200;2023-08-21T07:37:27;102367.91;;;21.35;63.42
26320;BME280;14024;52.226;5.200;2023-08-21T07:39:53;102372.03;;;21.28;63.04
26320;BME280;14024;52.226;5.200;2023-08-21T07:42:18;102376.00;;;21.35;63.23
26320;BME280;14024;52.226;5.200;2023-08-21T07:44:44;102376.00;;;21.35;61.51
26320;BME280;14024;52.226;5.200;2023-08-21T07:47:11;102377.63;;;21.38;60.72
26320;BME280;14024;52.226;5.200;2023-08-21T07:49:36;102372.59;;;21.57;60.30
26320;BME280;14024;52.226;5.200;2023-08-21T07:52:03;102371.09;;;21.53;60.54
26320;BME280;14024;52.226;5.200;2023-08-21T07:54:29;102374.31;;;21.58;60.21
26320;BME280;14024;52.226;5.200;2023-08-21T07:56:55;102387.94;;;21.57;60.14
26320;BME280;14024;52.226;5.200;2023-08-21T07:59:20;102377.56;;;21.63;60.25
26320;BME280;14024;52.226;5.200;2023-08-21T08:01:45;102375.72;;;21.64;60.47
26320;BME280;14024;52.226;5.200;2023-08-21T08:04:11;102371.94;;;21.66;60.00
26320;BME280;14024;52.226;5.200;2023-08-21T08:06:36;102375.28;;;21.70;60.14
26320;BME280;14024;52.226;5.200;2023-08-21T08:09:02;102377.84;;;21.71;59.18
26320;BME280;14024;52.226;5.200;2023-08-21T08:11:29;102386.91;;;21.70;60.14
26320;BME280;14024;52.226;5.200;2023-08-21T08:13:54;102394.88;;;21.85;60.29
26320;BME280;14024;52.226;5.200;2023-08-21T08:16:20;102388.94;;;21.79;61.00
26320;BME280;14024;52.226;5.200;2023-08-21T08:18:45;102384.59;;;21.90;60.67
26320;BME280;14024;52.226;5.200;2023-08-21T08:21:11;102382.03;;;21.88;60.77
26320;BME280;14024;52.226;5.200;2023-08-21T08:23:36;102379.31;;;22.01;59.76
26320;BME280;14024;52.226;5.200;2023-08-21T08:26:02;102377.06;;;21.95;59.90
26320;BME280;14024;52.226;5.200;2023-08-21T08:28:27;102380.28;;;22.00;60.07
26320;BME280;14024;52.226;5.200;2023-08-21T08:30:53;102376.28;;;22.05;59.88
26320;BME280;14024;52.226;5.200;2023-08-21T08:33:19;102385.28;;;22.17;59.50
26320;BME280;14024;52.226;5.200;2023-08-21T08:35:45;102382.34;;;22.20;59.60
26320;BME280;14024;52.226;5.200;2023-08-21T08:38:10;102378.94;;;22.29;59.10
26320;BME280;14024;52.226;5.200;2023-08-21T08:40:43;102381.63;;;22.29;59.24
26320;BME280;14024;52.226;5.200;2023-08-21T08:43:11;102393.28;;;22.42;58.85
26320;BME280;14024;52.226;5.200;2023-08-21T08:45:36;102387.38;;;22.48;58.13
26320;BME280;14024;52.226;5.200;2023-08-21T08:48:04;102385.19;;;22.53;58.43
26320;BME280;14024;52.226;5.200;2023-08-21T08:50:31;102384.25;;;22.65;58.10
26320;BME280;14024;52.226;5.200;2023-08-21T08:52:58;102378.84;;;22.65;57.27
26320;BME280;14024;52.226;5.200;2023-08-21T08:55:24;102387.88;;;22.77;58.27
26320;BME280;14024;52.226;5.200;2023-08-21T08:57:49;102380.50;;;22.79;58.30
26320;BME280;14024;52.226;5.200;2023-08-21T09:00:15;102378.09;;;22.87;58.05
26320;BME280;14024;52.226;5.200;2023-08-21T09:02:42;102371.56;;;22.90;57.99
26320;BME280;14024;52.226;5.200;2023-08-21T09:05:07;102379.81;;;22.99;57.36
26320;BME280;14024;52.226;5.200;2023-08-21T09:07:34;102370.38;;;23.05;56.27
26320;BME280;14024;52.226;5.200;2023-08-21T09:10:00;102372.06;;;23.06;56.78
26320;BME280;14024;52.226;5.200;2023-08-21T09:12:26;102372.81;;;23.19;56.94
26320;BME280;14024;52.226;5.200;2023-08-21T09:14:51;102382.53;;;23.22;56.24
26320;BME280;14024;52.226;5.200;2023-08-21T09:17:17;102375.03;;;23.25;55.66
26320;BME280;14024;52.226;5.200;2023-08-21T09:19:43;102371.59;;;23.34;55.27
26320;BME280;14024;52.226;5.200;2023-08-21T09:22:09;102375.06;;;23.36;56.64
26320;BME280;14024;52.226;5.200;2023-08-21T09:24:36;102379.00;;;23.32;55.13
26320;BME280;14024;52.226;5.200;2023-08-21T09:27:01;102380.47;;;23.36;53.94
26320;BME280;14024;52.226;5.200;2023-08-21T09:29:38;102372.13;;;23.50;54.57
26320;BME280;14024;52.226;5.200;2023-08-21T09:32:03;102374.53;;;23.65;54.02
26320;BME280;14024;52.226;5.200;2023-08-21T09:34:36;102370.72;;;23.78;53.92
26320;BME280;14024;52.226;5.200;2023-08-21T09:37:06;102373.44;;;23.67;54.68
26320;BME280;14024;52.226;5.200;2023-08-21T09:39:33;102367.88;;;23.69;54.31
26320;BME280;14024;52.226;5.200;2023-08-21T09:41:59;102362.84;;;23.75;53.91
26320;BME280;14024;52.226;5.200;2023-08-21T09:44:26;102364.47;;;23.55;53.23
26320;BME280;14024;52.226;5.200;2023-08-21T09:46:51;102356.09;;;23.70;53.81
26320;BME280;14024;52.226;5.200;2023-08-21T09:49:17;102342.16;;;23.74;54.57
26320;BME280;14024;52.226;5.200;2023-08-21T09:51:44;102355.31;;;23.79;53.92
26320;BME280;14024;52.226;5.200;2023-08-21T09:54:11;102355.09;;;23.82;53.82
26320;BME280;14024;52.226;5.200;2023-08-21T09:56:37;102358.88;;;23.90;52.50
26320;BME280;14024;52.226;5.200;2023-08-21T09:59:03;102357.09;;;24.00;51.72
26320;BME280;14024;52.226;5.200;2023-08-21T10:01:30;102348.22;;;24.10;50.17
26320;BME280;14024;52.226;5.200;2023-08-21T10:04:02;102350.06;;;24.20;49.49
26320;BME280;14024;52.226;5.200;2023-08-21T10:06:28;102353.81;;;24.40;50.92
26320;BME280;14024;52.226;5.200;2023-08-21T10:08:56;102341.91;;;24.31;50.37
26320;BME280;14024;52.226;5.200;2023-08-21T10:11:22;102344.81;;;24.39;50.64
26320;BME280;14024;52.226;5.200;2023-08-21T10:13:48;102348.66;;;24.58;50.87
26320;BME280;14024;52.226;5.200;2023-08-21T10:16:18;102353.13;;;24.48;49.17
26320;BME280;14024;52.226;5.200;2023-08-21T10:18:44;102352.34;;;24.57;49.83
26320;BME280;14024;52.226;5.200;2023-08-21T10:23:42;102345.66;;;24.61;49.99
26320;BME280;14024;52.226;5.200;2023-08-21T10:26:09;102353.53;;;24.64;50.08
26320;BME280;14024;52.226;5.200;2023-08-21T10:28:48;102357.97;;;24.65;49.81
26320;BME280;14024;52.226;5.200;2023-08-21T10:31:45;102358.34;;;24.60;50.19
26320;BME280;14024;52.226;5.200;2023-08-21T10:34:11;102361.41;;;24.67;51.45
26320;BME280;14024;52.226;5.200;2023-08-21T10:39:24;102366.22;;;24.63;50.79
26320;BME280;14024;52.226;5.200;2023-08-21T10:42:01;102359.41;;;24.48;51.43
26320;BME280;14024;52.226;5.200;2023-08-21T10:50:18;102355.91;;;24.78;48.58
26320;BME280;14024;52.226;5.200;2023-08-21T10:52:44;102344.00;;;24.69;49.00
26320;BME280;14024;52.226;5.200;2023-08-21T10:55:15;102346.00;;;24.88;49.93
26320;BME280;14024;52.226;5.200;2023-08-21T10:57:41;102347.41;;;25.03;49.25
26320;BME280;14024;52.226;5.200;2023-08-21T11:00:12;102344.88;;;24.91;48.36
26320;BME280;14024;52.226;5.200;2023-08-21T11:02:43;102343.81;;;25.03;48.27
26320;BME280;14024;52.226;5.200;2023-08-21T11:05:10;102358.44;;;25.11;46.93
26320;BME280;14024;52.226;5.200;2023-08-21T11:10:06;102350.09;;;25.03;46.33
26320;BME280;14024;52.226;5.200;2023-08-21T11:12:33;102344.13;;;25.09;46.81
26320;BME280;14024;52.226;5.200;2023-08-21T11:14:59;102331.38;;;25.30;46.79
26320;BME280;14024;52.226;5.200;2023-08-21T11:17:24;102337.44;;;25.44;46.85
26320;BME280;14024;52.226;5.200;2023-08-21T11:19:49;102345.19;;;25.58;46.84
26320;BME280;14024;52.226;5.200;2023-08-21T11:22:16;102339.97;;;25.05;46.04
26320;BME280;14024;52.226;5.200;2023-08-21T11:24:46;102342.97;;;25.02;47.36
26320;BME280;14024;52.226;5.200;2023-08-21T11:27:17;102344.69;;;25.03;46.20
26320;BME280;14024;52.226;5.200;2023-08-21T11:29:45;102354.50;;;25.25;46.74
26320;BME280;14024;52.226;5.200;2023-08-21T11:32:19;102348.78;;;25.28;47.32
26320;BME280;14024;52.226;5.200;2023-08-21T11:34:50;102337.63;;;25.21;48.27
26320;BME280;14024;52.226;5.200;2023-08-21T11:37:18;102342.25;;;25.30;48.54
26320;BME280;14024;52.226;5.200;2023-08-21T11:39:47;102345.97;;;25.49;46.99
26320;BME280;14024;52.226;5.200;2023-08-21T11:42:14;102336.63;;;25.62;45.71
26320;BME280;14024;52.226;5.200;2023-08-21T11:45:00;102338.22;;;25.65;45.53
26320;BME280;14024;52.226;5.200;2023-08-21T11:47:34;102338.53;;;25.81;46.98
26320;BME280;14024;52.226;5.200;2023-08-21T11:50:05;102336.66;;;25.72;47.15
26320;BME280;14024;52.226;5.200;2023-08-21T11:52:30;102328.44;;;25.53;46.48
26320;BME280;14024;52.226;5.200;2023-08-21T11:54:57;102328.00;;;25.48;46.17
26320;BME280;14024;52.226;5.200;2023-08-21T11:57:23;102329.44;;;25.52;46.92
26320;BME280;14024;52.226;5.200;2023-08-21T11:59:58;102331.25;;;25.91;47.59
26320;BME280;14024;52.226;5.200;2023-08-21T12:02:27;102338.44;;;26.02;46.39
26320;BME280;14024;52.226;5.200;2023-08-21T12:04:54;102334.03;;;26.30;46.23
26320;BME280;14024;52.226;5.200;2023-08-21T12:07:25;102329.56;;;26.48;44.88
26320;BME280;14024;52.226;5.200;2023-08-21T12:09:50;102335.84;;;26.48;45.28
26320;BME280;14024;52.226;5.200;2023-08-21T12:12:16;102336.41;;;26.61;44.19
26320;BME280;14024;52.226;5.200;2023-08-21T12:14:41;102332.16;;;26.40;44.63
26320;BME280;14024;52.226;5.200;2023-08-21T12:17:07;102334.88;;;26.40;45.92
26320;BME280;14024;52.226;5.200;2023-08-21T12:19:32;102316.41;;;26.14;44.18
26320;BME280;14024;52.226;5.200;2023-08-21T12:21:58;102321.44;;;26.29;44.80
26320;BME280;14024;52.226;5.200;2023-08-21T12:24:24;102327.81;;;26.08;44.70
26320;BME280;14024;52.226;5.200;2023-08-21T12:26:49;102319.53;;;26.19;44.75
26320;BME280;14024;52.226;5.200;2023-08-21T12:29:14;102314.84;;;26.41;45.10
26320;BME280;14024;52.226;5.200;2023-08-21T12:31:40;102302.34;;;26.57;44.34
26320;BME280;14024;52.226;5.200;2023-08-21T12:34:05;102312.22;;;26.68;44.43
26320;BME280;14024;52.226;5.200;2023-08-21T12:36:36;102309.88;;;26.83;42.90
26320;BME280;14024;52.226;5.200;2023-08-21T12:39:03;102314.81;;;26.60;40.51
26320;BME280;14024;52.226;5.200;2023-08-21T12:41:29;102316.44;;;26.24;41.71
26320;BME280;14024;52.226;5.200;2023-08-21T12:43:54;102319.53;;;26.00;42.54
26320;BME280;14024;52.226;5.200;2023-08-21T12:46:20;102307.38;;;26.04;43.18
26320;BME280;14024;52.226;5.200;2023-08-21T12:48:45;102310.13;;;26.43;42.32
26320;BME280;14024;52.226;5.200;2023-08-21T12:51:11;102312.63;;;26.73;41.63
26320;BME280;14024;52.226;5.200;2023-08-21T12:53:36;102308.06;;;26.74;40.78
26320;BME280;14024;52.226;5.200;2023-08-21T12:56:01;102311.84;;;27.00;41.21
26320;BME280;14024;52.226;5.200;2023-08-21T12:58:29;102312.38;;;27.13;41.56
26320;BME280;14024;52.226;5.200;2023-08-21T13:00:54;102307.56;;;26.97;40.52
26320;BME280;14024;52.226;5.200;2023-08-21T13:03:20;102318.09;;;26.54;43.02